x

Mid Gulf - 180 Nm South Of Southwest Pass, La (42001) Wave Buoy

10:50am - Fri 24th Feb 2017 All times are UTC.

  • Sig Wave height 2.3ft
  • Swell Direction
  • Peak Period 6s
  • Average Period 4s
  • Wind
    11mph, 16mph gusts
  • Sea Temp 75°f
  • Air Temp 73°f
  • Sea Pressure 1008.5mb

More Historic Weather Station data

Upgrade to MSW Pro to gain access to the past 30 days of data for over 8000 Wavebouys and Weather Stations around the globe.

Join Pro

Comparision Forecast

View Surf forecast
   
Fri 02/24 10:50am 2.5ft 6s 4s 11 16 mph 1008.5mb 75f 73f
9:50am 2.5ft 6s 4s 13 18 mph 1008.6mb 75f 73f
8:50am 2.5ft 6s 4s 13 18 mph 1008.4mb 75f 73f
7:50am 2.5ft 6s 5s 11 13 mph 1009.2mb 75f 72f
6:50am 2.5ft 6s 5s 11 13 mph 1009.5mb 75f 73f
5:50am 2.5ft 6s 5s 9 11 mph 1009.8mb 76f 73f
4:50am 2.5ft 6s 5s 7 9 mph 1010mb 75f 73f
3:50am 2.5ft 6s 5s 9
mph
1010.1mb 75f 73f
2:50am 2.5ft 6s 5s 7
mph
1010mb 75f 73f
1:50am 2.5ft 6s 5s 4 7 mph 1009.4mb 75f 73f
12:50am 3ft 6s 5s 2 4 mph 1008.8mb 75f 72f
Thu 02/23 11:50pm 3.5ft 7s 5s 2 4 mph 1008.5mb 76f 72f
10:50pm 3ft 6s 5s 2
mph
1008.5mb 76f 73f
9:50pm 3.5ft 5s 5s 2 4 mph 1008.2mb 76f 73f
8:50pm 3.5ft 7s 5s 4
mph
1008.3mb 76f 73f
7:50pm 3.5ft 6s 5s 4 7 mph 1008.5mb 76f 73f
6:50pm 3.5ft 6s 5s 4 7 mph 1009.2mb 76f 72f
5:50pm 3.5ft 6s 5s 4 7 mph 1009.9mb 76f 72f
4:50pm 4ft 6s 5s 7 11 mph 1010.3mb 75f 72f
3:50pm 3.5ft 6s 5s 9 11 mph 1010.4mb 75f 72f
2:50pm 4ft 6s 5s 9 13 mph 1010.1mb 75f 71f
1:50pm 4ft 6s 5s 9 11 mph 1009.7mb 75f 71f
12:50pm 3.5ft 6s 5s 9 11 mph 1009mb 75f 71f
11:50am 3.5ft 6s 5s 11 13 mph 1008.4mb 75f 70f
10:50am 4ft 6s 5s 11 16 mph 1008.4mb 75f 70f
9:50am 4.5ft 6s 5s 13 18 mph 1008.5mb 75f 70f
8:50am 4.5ft 6s 5s 13 18 mph 1008.3mb 75f 70f
7:50am 4.5ft 6s 5s 13 16 mph 1008.7mb 75f 70f
6:50am 4.5ft 7s 5s 13 16 mph 1009.1mb 75f 70f
5:50am 4.5ft 6s 5s 13 18 mph 1009.4mb 75f 70f
4:50am 5ft 6s 5s 13 18 mph 1009.8mb 76f 70f
3:50am 5ft 6s 5s 16 20 mph 1010mb 76f 70f
2:50am 5ft 6s 5s 18 22 mph 1009.9mb 76f 71f
1:50am 5ft 7s 5s 18 20 mph 1009.4mb 76f 71f
12:50am 5ft 6s 5s 18 22 mph 1008.9mb 76f 71f
Wed 02/22 11:50pm 5ft 6s 5s 18 22 mph 1008.6mb 76f 71f
10:50pm 5ft 8s 5s 16 20 mph 1008.2mb 76f 71f
9:50pm 5ft 8s 5s 16 18 mph 1008mb 76f 71f
8:50pm 5ft 8s 5s 16 20 mph 1008.2mb 75f 72f
7:50pm 6ft 8s 6s 18 20 mph 1008.7mb 75f 72f
6:50pm 5ft 8s 5s 18 20 mph 1009.2mb 75f 72f
5:50pm 5.5ft 7s 5s 18 22 mph 1009.7mb 75f 71f
4:50pm 5.5ft 8s 5s 18 20 mph 1010.5mb 75f 71f
3:50pm 6.5ft 7s 6s 18 22 mph 1010.4mb 75f 71f
2:50pm 6.5ft 7s 5s 20 25 mph 1010.2mb 75f 71f
1:50pm 6ft 8s 5s 22 27 mph 1010mb 75f 71f
12:50pm 6.5ft 7s 5s 25 29 mph 1009.6mb 75f 70f
10:50am 6ft 7s 5s 25 29 mph 1008.7mb 75f 70f
9:50am 6ft 7s 5s 25 29 mph 1008.5mb 75f 70f
8:50am 7.5ft 7s 5s 22 29 mph 1008.3mb 75f 70f
7:50am 6ft 6s 5s 25 29 mph 1008.3mb 75f 71f
6:50am 6ft 6s 5s 22 29 mph 1009mb 75f 71f
5:50am 4ft 6s 4s 25 27 mph 1009.6mb 75f 72f
4:50am 4ft 6s 5s 11 16 mph 1010.6mb 75f 70f
3:50am 4.5ft 6s 5s 13 16 mph 1011.3mb 75f 68f
2:50am 4ft 6s 4s 11 13 mph 1011.4mb 76f 66f
1:50am 4.5ft 6s 4s 13 18 mph 1012.2mb 76f 67f
12:50am 4ft 7s 5s 16 18 mph 1011.4mb 76f 71f
Tue 02/21 11:50pm 4ft 7s 5s 16 20 mph 1012mb 76f 71f
10:50pm 4.5ft 6s 5s 16 18 mph 1012.2mb 76f 71f
9:50pm 4.5ft 7s 5s 13 20 mph 1012.4mb 76f 70f
8:50pm 4.5ft 7s 5s 13 18 mph 1012.7mb 76f 69f
7:50pm 4.5ft 7s 5s 16 18 mph 1013mb 75f 67f
6:50pm 5.5ft 7s 6s 16 18 mph 1013.9mb 75f 67f
5:50pm 5ft 8s 6s 4 7 mph 1014.8mb 75f 67f
4:50pm 6ft 8s 6s 4
mph
1015.9mb 76f 67f
3:50pm 6.5ft 8s 6s 9 13 mph 1016.5mb 76f 66f
2:50pm 7ft 8s 6s 13 16 mph 1016.5mb 76f 69f
1:50pm 7ft 7s 6s 16 20 mph 1015.8mb 76f 71f
12:50pm 7ft 7s 5s 20 22 mph 1015.5mb 76f 71f
11:50am 5.5ft 5s 5s 27 31 mph 1014.5mb 76f 71f
10:50am 3.5ft 6s 4s 25 29 mph 1014mb 76f 71f
9:50am 3.5ft 5s 5s 4 7 mph 1014.5mb 76f 76f
8:50am 3.5ft 5s 5s 7
mph
1014.4mb 76f 76f
7:50am 3.5ft 6s 5s 7 9 mph 1014.4mb 76f 76f
6:50am 3.5ft 5s 5s 9
mph
1014.8mb 76f 76f
5:50am 3.5ft 6s 5s 9 11 mph 1015mb 76f 76f
4:50am 3.5ft 6s 5s 11 13 mph 1015.2mb 76f 76f
3:50am 4ft 6s 5s 13 18 mph 1015.1mb 76f 76f
2:50am 4.5ft 6s 5s 16 18 mph 1014.4mb 76f 76f
1:50am 4.5ft 6s 5s 16 18 mph 1014.5mb 76f 76f
12:50am 4.5ft 6s 5s 16 18 mph 1014.6mb 76f 76f
Mon 02/20 11:50pm 5ft 6s 5s 16 18 mph 1014.3mb 76f 76f
10:50pm 4.5ft 6s 5s 16 20 mph 1014.4mb 76f 77f
9:50pm 4.5ft 6s 5s 16 20 mph 1014.4mb 76f 77f
8:50pm 5ft 6s 5s 16 20 mph 1014.8mb 76f 77f
7:50pm 4.5ft 6s 5s 20 22 mph 1014.6mb 76f 77f
6:50pm 5ft 6s 5s 18 22 mph 1015.1mb 76f 76f
5:50pm 4.5ft 6s 5s 18 22 mph 1015.8mb 76f 76f
4:50pm 5.5ft 6s 5s 22 27 mph 1016.2mb 76f 76f
3:50pm 5ft 6s 5s 22 27 mph 1016.2mb 76f 76f
2:50pm 5ft 6s 5s 22 25 mph 1016mb 76f 76f
1:50pm 4.5ft 6s 5s 22 27 mph 1015.7mb 76f 76f
12:50pm 4.5ft 6s 5s 22 25 mph 1015.6mb 76f 76f
11:50am 4.5ft 6s 5s 18 20 mph 1015.4mb 76f 75f